Latest  Newer  Older  Last 2 hours animation  Current image  Latest image 
Rain/snow radar  Infrared sat images 
Real-time lightning map

All time is UTC (add 2 hours to UTC in wintertime, 3 hours to UTC in DST for Latvia local time)

2020/09/29 17:50 EVRA 291750Z 36003KT CAVOK 11/10 Q1019 NOSIG
2020/09/29 17:50 EVLA 291750Z AUTO 00000KT 1100 R06/P2000D R24/P2000N FG NCD 09/08 Q1018
2020/09/29 17:50 EVVA 291750Z AUTO 06004KT CAVOK 11/10 Q1019
2020/09/29 17:50 EYKA 291750Z 02004KT CAVOK 14/09 Q1017
2020/09/29 17:50 EYPA 291750Z 06005KT CAVOK 12/09 Q1018
2020/09/29 17:50 EYSA 291750Z 04005KT CAVOK 12/08 Q1018 BLU NOSIG
2020/09/29 17:50 EYVI 291750Z 04007KT CAVOK 12/08 Q1016 NOSIG
2020/09/29 15:20 EEKA 291520Z 35007KT 9999 FEW017 15/12 Q1019
2020/09/29 17:54 EEKE 291754Z AUTO 00000KT 7000NDV R17/P2000N R35/P2000N NSC 09/09 Q1019
2020/09/29 13:20 EEPU 291320Z 21002KT 9999 OVC023 15/15 Q1019
2020/09/29 17:50 EETN 291750Z 11003KT CAVOK 13/12 Q1020 NOSIG
2020/09/29 17:50 EETU 291750Z AUTO 10003KT 2000 BR VV001 13/12 Q1019
   RIGA AIRPORT     EVRA               56 55N  023 58E   10   X     T          6 LV
   LIEPAJA INTL     EVLA        26406  56 31N  021 06E    4   X                8 LV
   VENTPILS         EVVA               57 21N  021 33E    6   X                8 LV
   KAUNAS           EYKA               54 54N  023 55E   77   X     T          6 LT
   PALANGA INTL     EYPA               55 55N  021 03E   10   X                6 LT
   SIAULIAI INTL    EYSA               55 54N  023 24E  135   X     T          6 LT
   VILNIUS INTL     EYVI        26730  54 38N  025 17E  197   X     T          6 LT
   KARDLA           EEKA        26116  58 59N  022 50E    4   X                8 EE
   KURESSAARE       EEKE               58 14N  022 31E    4   X                8 EE
   PARNU            EEPU               58 25N  024 28E   14   X                8 EE
   TALLINN          EETN        26038  59 24N  024 49E   40   X     T          8 EE
   TARTU            EETU               58 19N  026 41E   67   X                8 EE

cloud coverage image from sat24.com and METAR data from weather.noaa.gov